createdAt,value
2018-07-16T00:01:02.506Z,95197.06
2018-07-16T00:03:31.240Z,95208.25
2018-07-16T00:05:59.949Z,95221.19
2018-07-16T00:08:28.627Z,95211.41
2018-07-16T00:10:57.299Z,95212.03
2018-07-16T00:13:25.927Z,95215.39
2018-07-16T00:15:54.590Z,95207.95
2018-07-16T00:18:23.265Z,95206.20
2018-07-16T00:20:51.910Z,95211.89
2018-07-16T00:23:20.543Z,95211.55
2018-07-16T00:25:49.183Z,95222.72
2018-07-16T00:28:17.875Z,95223.91
2018-07-16T00:30:46.489Z,95221.00
2018-07-16T00:33:15.147Z,95216.70
2018-07-16T00:35:43.843Z,95218.28
2018-07-16T00:38:12.506Z,95219.66
2018-07-16T00:40:41.156Z,95216.91
2018-07-16T00:43:09.809Z,95220.23
2018-07-16T00:45:38.471Z,95024.73
2018-07-16T00:48:07.169Z,95222.59
2018-07-16T00:50:35.855Z,95214.75
2018-07-16T00:53:04.508Z,95218.48
2018-07-16T00:55:33.159Z,95231.80
2018-07-16T00:58:01.795Z,95229.85
2018-07-16T01:00:30.511Z,95221.05
2018-07-16T01:02:59.134Z,95226.14
2018-07-16T01:05:27.755Z,95233.78
2018-07-16T01:07:56.398Z,95235.53
2018-07-16T01:10:25.036Z,95239.64
2018-07-16T01:12:53.709Z,95227.11
2018-07-16T01:15:22.428Z,95226.14
2018-07-16T01:17:51.043Z,95229.67
2018-07-16T01:20:19.746Z,95234.36
2018-07-16T01:22:48.440Z,95234.73
2018-07-16T01:25:17.072Z,95236.34
2018-07-16T01:27:45.690Z,95239.66
2018-07-16T01:30:14.386Z,95240.66
2018-07-16T01:32:42.990Z,95242.42
2018-07-16T01:35:11.671Z,95232.83
2018-07-16T01:37:40.324Z,95232.42
2018-07-16T01:40:09.030Z,95237.92
2018-07-16T01:42:37.707Z,95238.67
2018-07-16T01:45:06.385Z,95237.13
2018-07-16T01:47:35.130Z,95241.81
2018-07-16T01:50:03.906Z,95250.25
2018-07-16T01:52:32.558Z,95244.34
2018-07-16T01:55:01.181Z,95235.95
2018-07-16T01:57:29.848Z,95233.20
2018-07-16T01:59:58.523Z,95234.78
2018-07-16T02:02:27.163Z,95236.15
2018-07-16T02:04:55.878Z,95242.63
2018-07-16T02:07:24.630Z,95247.52
2018-07-16T02:09:53.367Z,95246.55
2018-07-16T02:12:22.031Z,95247.13
2018-07-16T02:14:50.660Z,95241.66
2018-07-16T02:17:19.298Z,95241.84
2018-07-16T02:19:47.919Z,95241.27
2018-07-16T02:22:16.560Z,95243.42
2018-07-16T02:24:45.212Z,95241.65
2018-07-16T02:27:13.908Z,95243.41
2018-07-16T02:29:42.559Z,95253.77
2018-07-16T02:32:11.296Z,95254.75
2018-07-16T02:34:40.057Z,95264.94
2018-07-16T02:37:08.687Z,95256.33
2018-07-16T02:39:37.361Z,95253.98
2018-07-16T02:42:05.992Z,95246.14
2018-07-16T02:44:34.648Z,95249.28
2018-07-16T02:47:03.392Z,95248.09
2018-07-16T02:49:32.020Z,95251.23
2018-07-16T02:52:00.660Z,95251.42
2018-07-16T02:54:29.304Z,95246.15
2018-07-16T02:56:57.944Z,95252.59
2018-07-16T02:59:26.602Z,95252.77
2018-07-16T03:01:55.302Z,95250.41
2018-07-16T03:04:23.987Z,95248.87
2018-07-16T03:06:52.652Z,95253.97
2018-07-16T03:09:21.330Z,95254.73
2018-07-16T03:11:50.184Z,95250.42
2018-07-16T03:14:18.835Z,95255.34
2018-07-16T03:16:47.451Z,95246.92
2018-07-16T03:19:16.095Z,95249.25
2018-07-16T03:21:44.730Z,95248.06
2018-07-16T03:24:13.375Z,95239.47
2018-07-16T03:26:42.047Z,95247.29
2018-07-16T03:29:10.720Z,95243.80
2018-07-16T03:31:39.439Z,95244.39
2018-07-16T03:34:08.123Z,95247.70
2018-07-16T03:36:36.757Z,95257.09
2018-07-16T03:39:18.030Z,95250.64
2018-07-16T03:41:46.671Z,95255.34
2018-07-16T03:44:15.322Z,95259.83
2018-07-16T03:46:43.978Z,95255.92
2018-07-16T03:49:12.737Z,95256.72
2018-07-16T03:51:41.535Z,95253.00
2018-07-16T03:54:10.278Z,95248.69
2018-07-16T03:56:38.969Z,95245.35
2018-07-16T03:59:07.669Z,95250.25
2018-07-16T04:01:36.348Z,95249.09
2018-07-16T04:04:05.075Z,95250.84
2018-07-16T04:06:33.721Z,95256.70
2018-07-16T04:09:02.354Z,95244.00
2018-07-16T04:11:31.004Z,95243.61
2018-07-16T04:13:59.700Z,95250.24
2018-07-16T04:16:28.406Z,95248.08
2018-07-16T04:18:57.057Z,95243.98
2018-07-16T04:21:25.730Z,95237.50
2018-07-16T04:23:54.516Z,95230.86
2018-07-16T04:26:23.175Z,95234.00
2018-07-16T04:28:52.001Z,95234.16
2018-07-16T04:31:20.895Z,95229.84
2018-07-16T04:33:49.541Z,95232.00
2018-07-16T04:36:18.299Z,95228.25
2018-07-16T04:38:47.188Z,95234.50
2018-07-16T04:41:15.957Z,95235.84
2018-07-16T04:43:44.682Z,95235.61
2018-07-16T04:46:13.336Z,95231.09
2018-07-16T04:48:41.975Z,95230.09
2018-07-16T04:51:10.609Z,95228.93
2018-07-16T04:53:39.298Z,95236.89
2018-07-16T04:56:08.083Z,95234.14
2018-07-16T04:58:36.757Z,95230.94
2018-07-16T05:01:05.430Z,95224.83
2018-07-16T05:03:34.171Z,95222.00
2018-07-16T05:06:02.807Z,95227.48
2018-07-16T05:08:31.483Z,95224.10
2018-07-16T05:11:00.130Z,95221.58
2018-07-16T05:13:28.834Z,95225.53
2018-07-16T05:15:57.569Z,95220.22
2018-07-16T05:18:26.512Z,95217.03
2018-07-16T05:20:54.936Z,95222.34
2018-07-16T05:23:23.616Z,95205.36
2018-07-16T05:25:52.308Z,95209.63
2018-07-16T05:28:21.011Z,95205.34
2018-07-16T05:30:49.681Z,95211.62
2018-07-16T05:33:18.349Z,95076.27
2018-07-16T05:35:46.994Z,95223.06
2018-07-16T05:38:15.793Z,95215.62
2018-07-16T05:40:44.407Z,95223.50
2018-07-16T05:43:13.047Z,95228.16
2018-07-16T05:45:41.709Z,95224.22
2018-07-16T05:48:10.480Z,95216.09
2018-07-16T05:50:39.151Z,95223.38
2018-07-16T05:53:07.879Z,95212.61
2018-07-16T05:55:36.527Z,95227.50
2018-07-16T05:58:05.204Z,95225.64
2018-07-16T06:00:33.830Z,95230.13
2018-07-16T06:03:02.499Z,95236.03
2018-07-16T06:05:31.182Z,95225.68
2018-07-16T06:07:59.822Z,95228.97
2018-07-16T06:10:28.548Z,95225.41
2018-07-16T06:12:57.210Z,95225.88
2018-07-16T06:15:25.870Z,95231.98
2018-07-16T06:17:54.615Z,95223.34
2018-07-16T06:20:23.254Z,95224.08
2018-07-16T06:22:51.890Z,95229.32
2018-07-16T06:25:20.553Z,95240.52
2018-07-16T06:27:49.256Z,95226.05
2018-07-16T06:30:17.903Z,95227.83
2018-07-16T06:32:46.527Z,95220.27
2018-07-16T06:35:15.203Z,95218.78
2018-07-16T06:37:43.950Z,95217.95
2018-07-16T06:40:13.067Z,95214.70
2018-07-16T06:42:41.911Z,95208.41
2018-07-16T06:45:10.640Z,95208.34
2018-07-16T06:47:39.390Z,95206.03
2018-07-16T06:50:08.355Z,95202.80
2018-07-16T06:52:37.240Z,95208.64
2018-07-16T06:55:06.449Z,95196.67
2018-07-16T06:57:35.426Z,95198.87
2018-07-16T07:00:07.453Z,95197.19
2018-07-16T07:02:36.171Z,95188.38
2018-07-16T07:05:04.872Z,95194.58
2018-07-16T07:07:33.497Z,95194.37
2018-07-16T07:10:02.207Z,95178.45
2018-07-16T07:12:30.895Z,95188.11
2018-07-16T07:14:59.618Z,95176.27
2018-07-16T07:17:28.255Z,95181.09
2018-07-16T07:19:56.915Z,95184.27
2018-07-16T07:22:25.629Z,95180.09
2018-07-16T07:24:54.297Z,95177.15
2018-07-16T07:27:22.944Z,95172.78
2018-07-16T07:29:51.602Z,95174.38
2018-07-16T07:32:20.246Z,95172.66
2018-07-16T07:34:49.000Z,95179.89
2018-07-16T07:37:17.678Z,95177.09
2018-07-16T07:39:46.480Z,95180.19
2018-07-16T07:42:15.135Z,95184.33
2018-07-16T07:44:43.906Z,95177.75
2018-07-16T07:47:12.577Z,95172.39
2018-07-16T07:49:41.239Z,95183.41
2018-07-16T07:52:09.898Z,95178.89
2018-07-16T07:54:38.731Z,95180.20
2018-07-16T07:57:07.339Z,95185.14
2018-07-16T07:59:35.986Z,95188.84
2018-07-16T08:02:04.786Z,95187.66
2018-07-16T08:04:33.459Z,95193.13
2018-07-16T08:07:07.293Z,95192.34
2018-07-16T08:09:35.944Z,95188.13
2018-07-16T08:12:04.799Z,95189.34
2018-07-16T08:14:33.635Z,95190.17
2018-07-16T08:17:02.328Z,95181.81
2018-07-16T08:19:30.996Z,95192.92
2018-07-16T08:21:59.690Z,95185.39
2018-07-16T08:24:28.424Z,95188.01
2018-07-16T08:26:57.143Z,95181.84
2018-07-16T08:29:25.936Z,95182.92
2018-07-16T08:31:55.227Z,95179.36
2018-07-16T08:34:23.890Z,95179.19
2018-07-16T08:36:52.550Z,95181.50
2018-07-16T08:39:21.307Z,95179.04
2018-07-16T08:41:50.322Z,95185.54
2018-07-16T08:44:19.040Z,95178.53
2018-07-16T08:46:47.707Z,95183.85
2018-07-16T08:49:16.342Z,95183.20
2018-07-16T08:51:45.060Z,95173.95
2018-07-16T08:54:13.802Z,95180.05
2018-07-16T08:56:42.598Z,95178.80
2018-07-16T08:59:11.310Z,95172.49
2018-07-16T09:01:40.007Z,95170.72
2018-07-16T09:04:08.752Z,95166.61
2018-07-16T09:06:37.499Z,95181.39
2018-07-16T09:09:06.583Z,95174.89
2018-07-16T09:11:35.219Z,95184.31
2018-07-16T09:14:04.033Z,95187.45
2018-07-16T09:16:32.742Z,95193.60
2018-07-16T09:19:01.447Z,95194.91
2018-07-16T09:21:30.549Z,95187.88
2018-07-16T09:23:59.223Z,95183.62
2018-07-16T09:26:27.969Z,95186.78
2018-07-16T09:28:56.594Z,95188.47
2018-07-16T09:31:25.250Z,95185.36
2018-07-16T09:33:53.903Z,95192.97
2018-07-16T09:36:22.570Z,95190.19
2018-07-16T09:38:51.258Z,95185.64
2018-07-16T09:41:19.913Z,95180.15
2018-07-16T09:43:48.672Z,95190.80
2018-07-16T09:46:17.610Z,95178.12
2018-07-16T09:48:46.258Z,95186.76
2018-07-16T09:51:14.898Z,95195.20
2018-07-16T09:53:43.530Z,95183.63
2018-07-16T09:56:12.221Z,95179.05
2018-07-16T09:58:40.890Z,95174.69
2018-07-16T10:01:14.739Z,95176.66
2018-07-16T10:03:43.383Z,95180.72
2018-07-16T10:06:12.055Z,95170.60
2018-07-16T10:08:40.710Z,95156.52
2018-07-16T10:11:09.348Z,95162.30
2018-07-16T10:13:38.027Z,95157.11
2018-07-16T10:16:06.999Z,95152.23
2018-07-16T10:18:35.642Z,95158.40
2018-07-16T10:21:04.702Z,95150.05
2018-07-16T10:23:33.383Z,95144.05
2018-07-16T10:26:02.071Z,95151.61
2018-07-16T10:28:30.779Z,95139.83
2018-07-16T10:30:59.429Z,95134.98
2018-07-16T10:33:28.131Z,95137.73
2018-07-16T10:35:56.782Z,95149.73
2018-07-16T10:38:25.635Z,95148.08
2018-07-16T10:40:54.496Z,95138.11
2018-07-16T10:43:23.161Z,95136.68
2018-07-16T10:45:51.901Z,95146.75
2018-07-16T10:48:20.547Z,95149.56
2018-07-16T10:50:49.363Z,95145.73
2018-07-16T10:53:18.076Z,95141.06
2018-07-16T10:55:46.758Z,95142.56
2018-07-16T10:58:15.443Z,95146.00
2018-07-16T11:00:44.126Z,95145.22
2018-07-16T11:03:12.880Z,95143.13
2018-07-16T11:05:41.552Z,95148.06
2018-07-16T11:08:11.043Z,95146.25
2018-07-16T11:10:39.691Z,95147.97
2018-07-16T11:13:08.428Z,95146.70
2018-07-16T11:15:37.150Z,95141.33
2018-07-16T11:18:05.813Z,95137.17
2018-07-16T11:20:34.456Z,95131.59
2018-07-16T11:23:03.184Z,95129.84
2018-07-16T11:25:32.020Z,95126.20
2018-07-16T11:28:00.707Z,95119.77
2018-07-16T11:30:29.349Z,95127.84
2018-07-16T11:32:58.054Z,95128.80
2018-07-16T11:35:26.774Z,95119.23
2018-07-16T11:37:55.556Z,95108.25
2018-07-16T11:40:24.268Z,95119.85
2018-07-16T11:42:52.931Z,95111.53
2018-07-16T11:45:21.652Z,95110.55
2018-07-16T11:47:50.335Z,95116.69
2018-07-16T11:50:18.973Z,95106.52
2018-07-16T11:52:47.640Z,95102.97
2018-07-16T11:55:16.356Z,95096.16
2018-07-16T11:57:45.086Z,95095.73
2018-07-16T12:00:13.811Z,95106.08
2018-07-16T12:02:42.496Z,95099.72
2018-07-16T12:05:11.237Z,95109.70
2018-07-16T12:07:39.880Z,95116.81
2018-07-16T12:10:08.671Z,95119.59
2018-07-16T12:12:37.513Z,95119.68
2018-07-16T12:15:06.234Z,95106.97
2018-07-16T12:17:34.881Z,95092.81
2018-07-16T12:20:03.522Z,95109.55
2018-07-16T12:22:32.291Z,95112.02
2018-07-16T12:25:01.039Z,95101.20
2018-07-16T12:27:29.745Z,95107.85
2018-07-16T12:29:58.449Z,95104.92
2018-07-16T12:32:27.119Z,95100.41
2018-07-16T12:34:55.749Z,95103.39
2018-07-16T12:37:24.470Z,95102.91
2018-07-16T12:39:53.099Z,95097.31
2018-07-16T12:42:21.860Z,95102.74
2018-07-16T12:44:50.597Z,95089.61
2018-07-16T12:47:19.367Z,95084.92
2018-07-16T12:49:47.992Z,95081.06
2018-07-16T12:52:16.629Z,95089.39
2018-07-16T12:54:45.395Z,95080.84
2018-07-16T12:57:14.056Z,95086.11
2018-07-16T12:59:42.728Z,95083.09
2018-07-16T13:02:11.661Z,95071.03
2018-07-16T13:04:40.326Z,95062.80
2018-07-16T13:07:08.956Z,95066.22
2018-07-16T13:09:37.590Z,95062.37
2018-07-16T13:12:06.519Z,95071.38
2018-07-16T13:14:35.191Z,95061.63
2018-07-16T13:17:03.914Z,95049.32
2018-07-16T13:19:32.639Z,95059.45
2018-07-16T13:22:01.269Z,95062.08
2018-07-16T13:24:29.935Z,95066.34
2018-07-16T13:26:58.623Z,95065.51
2018-07-16T13:29:27.238Z,95066.73
2018-07-16T13:31:55.943Z,95061.14
2018-07-16T13:34:24.675Z,95066.54
2018-07-16T13:36:53.349Z,95060.59
2018-07-16T13:39:21.968Z,95063.28
2018-07-16T13:41:50.626Z,95061.23
2018-07-16T13:44:19.383Z,95056.58
2018-07-16T13:46:48.121Z,95051.87
2018-07-16T13:49:16.737Z,95057.50
2018-07-16T13:51:45.390Z,95043.32
2018-07-16T13:54:14.213Z,95050.83
2018-07-16T13:56:43.031Z,95051.12
2018-07-16T13:59:12.340Z,95052.47
2018-07-16T14:01:41.043Z,95044.14
2018-07-16T14:04:09.714Z,95042.81
2018-07-16T14:06:38.323Z,95038.65
2018-07-16T14:09:08.472Z,95051.70
2018-07-16T14:11:37.240Z,95047.63
2018-07-16T14:14:06.322Z,95042.34
2018-07-16T14:16:35.005Z,95034.41
2018-07-16T14:19:03.695Z,95034.70
2018-07-16T14:21:32.324Z,95035.66
2018-07-16T14:24:00.976Z,95035.11
2018-07-16T14:26:29.574Z,95029.77
2018-07-16T14:28:58.260Z,95024.47
2018-07-16T14:31:27.017Z,95030.36
2018-07-16T14:33:55.635Z,95034.99
2018-07-16T14:36:24.288Z,95037.71
2018-07-16T14:38:52.918Z,95018.95
2018-07-16T14:41:21.574Z,95021.34
2018-07-16T14:43:50.248Z,95022.87
2018-07-16T14:46:18.863Z,95015.25
2018-07-16T14:48:47.496Z,95018.92
2018-07-16T14:51:16.306Z,95028.23
2018-07-16T14:53:45.008Z,95010.69
2018-07-16T14:56:13.695Z,95016.17
2018-07-16T14:58:42.398Z,95011.78
2018-07-16T15:01:11.095Z,95007.70
2018-07-16T15:03:40.501Z,95010.74
2018-07-16T15:06:09.340Z,95004.33
2018-07-16T15:08:38.042Z,95000.80
2018-07-16T15:11:06.902Z,94993.95
2018-07-16T15:13:35.580Z,94995.80
2018-07-16T15:16:04.469Z,94994.82
2018-07-16T15:18:33.779Z,94983.25
2018-07-16T15:21:08.018Z,94980.59
2018-07-16T15:23:38.825Z,94974.91
2018-07-16T15:26:08.375Z,94972.36
2018-07-16T15:28:37.042Z,94968.00
2018-07-16T15:31:05.786Z,94970.88
2018-07-16T15:33:34.482Z,94968.50
2018-07-16T15:36:04.761Z,94968.75
2018-07-16T15:38:33.516Z,94968.97
2018-07-16T15:41:02.247Z,94969.57
2018-07-16T15:43:31.358Z,94970.78
2018-07-16T15:46:00.199Z,94969.08
2018-07-16T15:48:28.828Z,94984.31
2018-07-16T15:50:57.495Z,94980.70
2018-07-16T15:53:26.243Z,94977.07
2018-07-16T15:55:55.174Z,94972.28
2018-07-16T15:58:24.027Z,94968.30
2018-07-16T16:00:52.749Z,94972.88
2018-07-16T16:03:21.352Z,94975.44
2018-07-16T16:05:59.808Z,94970.14
2018-07-16T16:08:28.840Z,94973.97
2018-07-16T16:11:10.961Z,94979.09
2018-07-16T16:13:39.849Z,94982.17
2018-07-16T16:16:08.642Z,94991.38
2018-07-16T16:18:37.366Z,94982.88
2018-07-16T16:21:06.178Z,94989.48
2018-07-16T16:23:34.881Z,94991.61
2018-07-16T16:26:03.667Z,94994.20
2018-07-16T16:28:33.142Z,94989.44
2018-07-16T16:31:01.848Z,94995.95
2018-07-16T16:33:30.704Z,94991.80
2018-07-16T16:35:59.483Z,94996.08
2018-07-16T16:38:28.335Z,94998.80
2018-07-16T16:40:57.075Z,95008.50
2018-07-16T16:43:25.749Z,95015.09
2018-07-16T16:45:54.540Z,95020.57
2018-07-16T16:48:24.287Z,95008.81
2018-07-16T16:50:52.977Z,95007.04
2018-07-16T16:53:21.676Z,95015.19
2018-07-16T16:55:50.394Z,95006.84
2018-07-16T16:58:19.199Z,95007.31
2018-07-16T17:00:47.964Z,95002.05
2018-07-16T17:03:16.631Z,95003.80
2018-07-16T17:05:45.791Z,95007.28
2018-07-16T17:08:14.451Z,95007.82
2018-07-16T17:10:43.136Z,95018.22
2018-07-16T17:13:12.128Z,95018.55
2018-07-16T17:15:40.810Z,95022.19
2018-07-16T17:18:09.501Z,95014.16
2018-07-16T17:20:38.131Z,95010.78
2018-07-16T17:23:07.486Z,95012.36
2018-07-16T17:25:36.213Z,95017.47
2018-07-16T17:28:04.998Z,95009.27
2018-07-16T17:30:33.707Z,95006.25
2018-07-16T17:33:02.427Z,95007.63
2018-07-16T17:35:31.127Z,95004.27
2018-07-16T17:37:59.773Z,95003.93
2018-07-16T17:40:28.558Z,94998.52
2018-07-16T17:42:57.176Z,95004.73
2018-07-16T17:45:25.871Z,95003.20
2018-07-16T17:47:54.538Z,95004.58
2018-07-16T17:50:23.220Z,95003.28
2018-07-16T17:52:51.928Z,95003.39
2018-07-16T17:55:20.663Z,95007.73
2018-07-16T17:57:49.445Z,95013.33
2018-07-16T18:00:18.203Z,95014.19
2018-07-16T18:02:46.904Z,95008.70
2018-07-16T18:05:16.250Z,95013.19
2018-07-16T18:07:44.922Z,95016.44
2018-07-16T18:10:13.634Z,95009.56
2018-07-16T18:12:42.368Z,95004.97
2018-07-16T18:15:11.093Z,95004.53
2018-07-16T18:17:39.820Z,94995.75
2018-07-16T18:20:08.503Z,94991.00
2018-07-16T18:22:37.487Z,94987.64
2018-07-16T18:25:06.172Z,94989.81
2018-07-16T18:27:34.822Z,94998.35
2018-07-16T18:30:04.492Z,94995.06
2018-07-16T18:32:33.208Z,94998.34
2018-07-16T18:35:01.930Z,95001.54
2018-07-16T18:37:30.675Z,94998.44
2018-07-16T18:39:59.332Z,94995.49
2018-07-16T18:42:28.011Z,95000.27
2018-07-16T18:44:56.662Z,95004.73
2018-07-16T18:47:25.378Z,94999.47
2018-07-16T18:49:54.046Z,95014.83
2018-07-16T18:52:22.674Z,95015.33
2018-07-16T18:54:51.577Z,95014.73
2018-07-16T18:57:20.351Z,95012.31
2018-07-16T18:59:49.655Z,95013.54
2018-07-16T19:02:18.338Z,95003.86
2018-07-16T19:04:47.002Z,95010.09
2018-07-16T19:07:15.831Z,95006.21
2018-07-16T19:09:44.535Z,94994.72
2018-07-16T19:12:13.204Z,94996.73
2018-07-16T19:14:41.847Z,95002.42
2018-07-16T19:17:10.615Z,95006.72
2018-07-16T19:19:39.361Z,95010.61
2018-07-16T19:22:08.353Z,95012.59
2018-07-16T19:24:37.034Z,95003.09
2018-07-16T19:27:05.809Z,95004.84
2018-07-16T19:29:35.209Z,94998.95
2018-07-16T19:32:03.866Z,94994.28
2018-07-16T19:34:32.526Z,94995.66
2018-07-16T19:37:01.754Z,94995.85
2018-07-16T19:39:30.495Z,94997.39
2018-07-16T19:41:59.206Z,94992.75
2018-07-16T19:44:28.506Z,94992.22
2018-07-16T19:46:57.242Z,94958.38
2018-07-16T19:49:25.900Z,94991.72
2018-07-16T19:51:54.575Z,94982.56
2018-07-16T19:54:23.329Z,94983.76
2018-07-16T19:56:52.653Z,94986.92
2018-07-16T19:59:21.871Z,94988.50
2018-07-16T20:01:50.564Z,94998.21
2018-07-16T20:04:19.187Z,94995.05
2018-07-16T20:06:47.879Z,94991.10
2018-07-16T20:09:16.651Z,94989.16
2018-07-16T20:11:45.333Z,94993.11
2018-07-16T20:14:15.074Z,94991.56
2018-07-16T20:16:44.252Z,94986.45
2018-07-16T20:19:13.352Z,94986.02
2018-07-16T20:21:42.076Z,94975.09
2018-07-16T20:24:10.790Z,94978.81
2018-07-16T20:26:39.486Z,94979.81
2018-07-16T20:29:08.187Z,94978.87
2018-07-16T20:31:37.552Z,94974.39
2018-07-16T20:34:06.340Z,94971.29
2018-07-16T20:36:35.002Z,94957.57
2018-07-16T20:39:04.478Z,94959.80
2018-07-16T20:41:33.309Z,94961.16
2018-07-16T20:44:02.022Z,94954.20
2018-07-16T20:46:31.257Z,94953.47
2018-07-16T20:48:59.904Z,94952.02
2018-07-16T20:51:28.871Z,94949.41
2018-07-16T20:53:58.003Z,94941.68
2018-07-16T20:56:26.673Z,94944.28
2018-07-16T20:58:55.505Z,94943.42
2018-07-16T21:04:14.666Z,94951.98
2018-07-16T21:06:43.556Z,94952.27
2018-07-16T21:09:12.279Z,94956.27
2018-07-16T21:11:40.941Z,94953.36
2018-07-16T21:14:09.614Z,94949.42
2018-07-16T21:16:38.707Z,94957.08
2018-07-16T21:19:07.423Z,94956.72
2018-07-16T21:21:36.216Z,94960.55
2018-07-16T21:24:04.880Z,94955.45
2018-07-16T21:26:33.573Z,94957.05
2018-07-16T21:29:02.332Z,94953.97
2018-07-16T21:31:31.110Z,94954.23
2018-07-16T21:33:59.750Z,94950.02
2018-07-16T21:36:28.484Z,94946.09
2018-07-16T21:38:57.187Z,94944.39
2018-07-16T21:41:25.860Z,94942.33
2018-07-16T21:43:54.507Z,94944.45
2018-07-16T21:46:23.279Z,94934.31
2018-07-16T21:48:51.872Z,94932.13
2018-07-16T21:51:20.502Z,94933.07
2018-07-16T21:53:49.211Z,94934.45
2018-07-16T21:56:17.867Z,94936.63
2018-07-16T21:58:46.562Z,94938.75
2018-07-16T22:01:15.249Z,94942.16
2018-07-16T22:03:43.961Z,94942.39
2018-07-16T22:06:12.615Z,94947.94
2018-07-16T22:08:41.376Z,94938.61
2018-07-16T22:11:10.042Z,94946.42
2018-07-16T22:13:38.699Z,94944.41
2018-07-16T22:16:07.628Z,94941.61
2018-07-16T22:18:36.283Z,94950.42
2018-07-16T22:21:04.907Z,94948.69
2018-07-16T22:23:33.580Z,94949.62
2018-07-16T22:26:02.295Z,94966.25
2018-07-16T22:28:30.975Z,94946.73
2018-07-16T22:30:59.687Z,94943.84
2018-07-16T22:33:28.341Z,94948.77
2018-07-16T22:35:57.026Z,94948.05
2018-07-16T22:38:25.801Z,94948.86
2018-07-16T22:40:54.491Z,94938.38
2018-07-16T22:43:23.170Z,94942.49
2018-07-16T22:45:51.856Z,94939.50
2018-07-16T22:48:20.547Z,94933.27
2018-07-16T22:50:49.250Z,94930.74
2018-07-16T22:53:17.941Z,94933.85
2018-07-16T22:55:46.892Z,94931.70
2018-07-16T22:58:15.556Z,94936.78
2018-07-16T23:00:44.226Z,94935.03
2018-07-16T23:03:12.848Z,94941.73
2018-07-16T23:05:41.513Z,94935.97
2018-07-16T23:08:10.235Z,94936.56
2018-07-16T23:10:38.870Z,94932.77
2018-07-16T23:13:07.530Z,94932.09
2018-07-16T23:15:36.219Z,94940.52
2018-07-16T23:18:04.863Z,94937.90
2018-07-16T23:20:33.548Z,94944.96
2018-07-16T23:23:02.168Z,94930.05
2018-07-16T23:25:30.771Z,94923.98
2018-07-16T23:27:59.436Z,94921.14
2018-07-16T23:30:28.131Z,94918.22
2018-07-16T23:32:56.835Z,94916.03
2018-07-16T23:35:49.119Z,94918.20
2018-07-16T23:38:18.004Z,94920.16
2018-07-16T23:40:46.725Z,94911.38
2018-07-16T23:43:15.435Z,94911.71
2018-07-16T23:45:44.428Z,94916.81
2018-07-16T23:48:13.149Z,94927.80
2018-07-16T23:50:41.905Z,94927.84
2018-07-16T23:53:10.562Z,94929.86
2018-07-16T23:55:39.329Z,94930.51
2018-07-16T23:58:07.960Z,94926.78
